| time (UTC) | temp C | wind direction | speed KPH | gust KPH | rain 1hr cm | rain 24hr cm | rain mn cm | humidity % | barometer mb |
| 20260510072755 | 21 | 86 | 0.0 | 3.2 | 0.00 | 0.00 | 0.00 | 81 | 1013.3 |
| 20260510072252 | 21 | 246 | 0.0 | 4.8 | 0.00 | 0.00 | 0.00 | 81 | 1013.6 |
| 20260510071749 | 21 | 198 | 1.6 | 4.8 | 0.00 | 0.00 | 0.00 | 81 | 1013.3 |
| 20260510071245 | 21 | 148 | 0.0 | 4.8 | 0.00 | 0.00 | 0.00 | 81 | 1013.6 |
| 20260510070744 | 21 | 202 | 3.2 | 6.4 | 0.00 | 0.00 | 0.00 | 82 | 1013.6 |
| 20260510070240 | 21 | 131 | 0.0 | 1.6 | 0.00 | 0.00 | 0.00 | 82 | 1013.6 |
| 20260510065735 | 21 | 151 | 0.0 | 1.6 | 0.00 | 0.00 | 0.00 | 83 | 1013.6 |
| 20260510065232 | 21 | 129 | 0.0 | 1.6 | 0.00 | 0.00 | 0.00 | 82 | 1013.6 |
| 20260510064728 | 21 | 193 | 1.6 | 4.8 | 0.00 | 0.00 | 0.00 | 82 | 1013.6 |
| 20260510064226 | 21 | 127 | 1.6 | 4.8 | 0.00 | 0.00 | 0.00 | 82 | 1013.6 |
| 20260510063723 | 21 | 122 | 0.0 | 1.6 | 0.00 | 0.00 | 0.00 | 81 | 1013.6 |
| 20260510063219 | 22 | 202 | 0.0 | 1.6 | 0.00 | 0.00 | 0.00 | 81 | 1013.6 |
| 20260510062716 | 22 | 93 | 1.6 | 3.2 | 0.00 | 0.00 | 0.00 | 80 | 1014.1 |
| 20260510062212 | 22 | 175 | 1.6 | 1.6 | 0.00 | 0.00 | 0.00 | 80 | 1013.6 |
| 20260510061707 | 22 | 147 | 1.6 | 6.4 | 0.00 | 0.00 | 0.00 | 80 | 1013.6 |
| 20260510061204 | 22 | 140 | 1.6 | 3.2 | 0.00 | 0.00 | 0.00 | 80 | 1014.1 |
| 20260510060701 | 22 | 132 | 0.0 | 3.2 | 0.00 | 0.00 | 0.00 | 80 | 1013.6 |
| 20260510060157 | 22 | 109 | 0.0 | 1.6 | 0.00 | 0.00 | 0.00 | 80 | 1013.6 |
| 20260510055654 | 22 | 127 | 0.0 | 0.0 | 0.00 | 0.00 | 0.00 | 80 | 1013.6 |
| 20260510055152 | 22 | 120 | 0.0 | 0.0 | 0.00 | 0.00 | 0.00 | 80 | 1014.1 |
| 20260510054647 | 22 | 119 | 0.0 | 1.6 | 0.00 | 0.00 | 0.00 | 79 | 1014.1 |
| 20260510054143 | 22 | 153 | 0.0 | 1.6 | 0.00 | 0.00 | 0.00 | 80 | 1014.1 |
| 20260510053642 | 22 | 127 | 0.0 | 1.6 | 0.00 | 0.00 | 0.00 | 79 | 1013.6 |
| 20260510053139 | 22 | 130 | 0.0 | 1.6 | 0.00 | 0.00 | 0.00 | 79 | 1013.6 |
| 20260510052635 | 22 | 135 | 0.0 | 0.0 | 0.00 | 0.00 | 0.00 | 79 | 1013.6 |
| 20260510052131 | 22 | 127 | 0.0 | 0.0 | 0.00 | 0.00 | 0.00 | 79 | 1013.6 |
| 20260510051627 | 22 | 107 | 0.0 | 0.0 | 0.00 | 0.00 | 0.00 | 78 | 1013.6 |
| 20260510051124 | 22 | 140 | 0.0 | 0.0 | 0.00 | 0.00 | 0.00 | 78 | 1013.6 |
| 20260510050621 | 22 | 121 | 0.0 | 0.0 | 0.00 | 0.00 | 0.00 | 78 | 1013.6 |
| 20260510050118 | 22 | 138 | 0.0 | 0.0 | 0.00 | 0.00 | 0.00 | 78 | 1013.6 |
| 20260510045615 | 22 | 137 | 0.0 | 0.0 | 0.00 | 0.03 | 0.03 | 77 | 1013.6 |
| 20260510045111 | 22 | 130 | 0.0 | 0.0 | 0.00 | 0.03 | 0.03 | 77 | 1013.6 |
| 20260510044608 | 22 | 130 | 0.0 | 0.0 | 0.00 | 0.03 | 0.03 | 78 | 1013.3 |
| 20260510044105 | 22 | 131 | 0.0 | 0.0 | 0.00 | 0.03 | 0.03 | 77 | 1013.3 |
| 20260510043601 | 22 | 134 | 0.0 | 0.0 | 0.00 | 0.03 | 0.03 | 77 | 1013.3 |
| 20260510043057 | 22 | 131 | 0.0 | 0.0 | 0.00 | 0.03 | 0.03 | 77 | 1013.3 |
| 20260510042555 | 22 | 119 | 0.0 | 0.0 | 0.00 | 0.03 | 0.03 | 77 | 1013.3 |
| 20260510042051 | 22 | 121 | 0.0 | 0.0 | 0.00 | 0.03 | 0.03 | 77 | 1013.3 |
| 20260510041548 | 22 | 110 | 0.0 | 0.0 | 0.00 | 0.03 | 0.03 | 76 | 1013.3 |
| 20260510041046 | 22 | 111 | 0.0 | 0.0 | 0.00 | 0.03 | 0.03 | 76 | 1013.3 |
| 20260510040542 | 22 | 95 | 0.0 | 0.0 | 0.00 | 0.03 | 0.03 | 76 | 1013.0 |
| 20260510040038 | 22 | 130 | 0.0 | 0.0 | 0.00 | 0.03 | 0.03 | 75 | 1013.3 |
| 20260510035534 | 22 | 119 | 0.0 | 0.0 | 0.00 | 0.03 | 0.03 | 74 | 1013.3 |
| 20260510035034 | 23 | 122 | 0.0 | 1.6 | 0.00 | 0.03 | 0.03 | 74 | 1013.3 |
| 20260510034533 | 23 | 136 | 0.0 | 1.6 | 0.00 | 0.03 | 0.03 | 73 | 1013.0 |
| 20260510034029 | 23 | 183 | 0.0 | 1.6 | 0.00 | 0.03 | 0.03 | 73 | 1013.0 |
| 20260510033525 | 23 | 158 | 0.0 | 1.6 | 0.00 | 0.03 | 0.03 | 73 | 1013.0 |
| 20260510033023 | 23 | 117 | 0.0 | 0.0 | 0.00 | 0.03 | 0.03 | 74 | 1013.0 |
| 20260510032519 | 23 | 129 | 0.0 | 0.0 | 0.00 | 0.03 | 0.03 | 74 | 1013.0 |
| 20260510032015 | 23 | 131 | 0.0 | 1.6 | 0.00 | 0.03 | 0.03 | 73 | 1013.0 |
| 20260510031510 | 23 | 137 | 0.0 | 0.0 | 0.00 | 0.03 | 0.03 | 73 | 1013.0 |
| 20260510031006 | 23 | 128 | 0.0 | 0.0 | 0.00 | 0.03 | 0.03 | 72 | 1013.0 |
| 20260510030502 | 23 | 109 | 0.0 | 0.0 | 0.00 | 0.03 | 0.03 | 72 | 1013.0 |
| 20260510025959 | 23 | 126 | 0.0 | 0.0 | 0.00 | 0.03 | 0.03 | 71 | 1013.0 |
| 20260510025456 | 23 | 128 | 0.0 | 0.0 | 0.00 | 0.03 | 0.03 | 70 | 1013.0 |
| 20260510024954 | 24 | 130 | 0.0 | 0.0 | 0.00 | 0.03 | 0.03 | 70 | 1012.6 |
| 20260510024450 | 24 | 125 | 0.0 | 1.6 | 0.00 | 0.03 | 0.03 | 69 | 1013.0 |
| 20260510023946 | 24 | 139 | 0.0 | 1.6 | 0.00 | 0.03 | 0.03 | 68 | 1012.6 |
| 20260510023443 | 24 | 147 | 3.2 | 3.2 | 0.00 | 0.03 | 0.03 | 67 | 1012.6 |
| 20260510022939 | 25 | 126 | 0.0 | 0.0 | 0.00 | 0.03 | 0.03 | 66 | 1012.6 |
| 20260510022438 | 25 | 118 | 0.0 | 0.0 | 0.00 | 0.03 | 0.03 | 66 | 1012.6 |
| 20260510021938 | 25 | 132 | 0.0 | 1.6 | 0.00 | 0.03 | 0.03 | 65 | 1012.3 |
| 20260510021436 | 25 | 136 | 0.0 | 3.2 | 0.00 | 0.03 | 0.03 | 65 | 1012.3 |
| 20260510020932 | 25 | 125 | 0.0 | 3.2 | 0.00 | 0.03 | 0.03 | 65 | 1012.3 |
| 20260510020427 | 25 | 136 | 1.6 | 1.6 | 0.00 | 0.03 | 0.03 | 64 | 1011.9 |
| 20260510015923 | 25 | 129 | 1.6 | 1.6 | 0.00 | 0.03 | 0.03 | 64 | 1012.3 |
| 20260510015419 | 25 | 127 | 0.0 | 1.6 | 0.00 | 0.03 | 0.03 | 64 | 1011.9 |
| 20260510014914 | 26 | 125 | 0.0 | 3.2 | 0.00 | 0.03 | 0.03 | 64 | 1011.9 |
| 20260510014412 | 26 | 127 | 1.6 | 3.2 | 0.00 | 0.03 | 0.03 | 64 | 1011.9 |
| 20260510013908 | 26 | 116 | 0.0 | 1.6 | 0.00 | 0.03 | 0.03 | 63 | 1011.9 |
| 20260510013403 | 26 | 159 | 1.6 | 3.2 | 0.00 | 0.03 | 0.03 | 63 | 1011.6 |
| 20260510012858 | 26 | 145 | 0.0 | 1.6 | 0.00 | 0.03 | 0.03 | 63 | 1011.6 |
| 20260510012354 | 26 | 133 | 1.6 | 1.6 | 0.00 | 0.03 | 0.03 | 62 | 1011.6 |
| 20260510011848 | 26 | 132 | 0.0 | 0.0 | 0.00 | 0.03 | 0.03 | 63 | 1011.2 |
| 20260510011344 | 27 | 109 | 0.0 | 0.0 | 0.00 | 0.03 | 0.03 | 62 | 1011.2 |
| 20260510010840 | 27 | 101 | 0.0 | 1.6 | 0.00 | 0.03 | 0.03 | 61 | 1011.2 |
| 20260510010338 | 27 | 102 | 0.0 | 1.6 | 0.00 | 0.03 | 0.03 | 60 | 1011.2 |
| 20260510005834 | 28 | 34 | 0.0 | 1.6 | 0.00 | 0.03 | 0.03 | 59 | 1011.2 |
| 20260510005331 | 28 | 103 | 1.6 | 1.6 | 0.00 | 0.03 | 0.03 | 58 | 1010.8 |
| 20260510004828 | 28 | 138 | 4.8 | 6.4 | 0.00 | 0.03 | 0.03 | 56 | 1010.8 |
| 20260510004326 | 28 | 223 | 1.6 | 3.2 | 0.00 | 0.03 | 0.03 | 56 | 1010.8 |
| 20260510003823 | 28 | 132 | 0.0 | 3.2 | 0.00 | 0.03 | 0.03 | 56 | 1010.8 |
| 20260510003320 | 28 | 193 | 0.0 | 3.2 | 0.00 | 0.03 | 0.03 | 55 | 1010.8 |
| 20260510002819 | 28 | 153 | 1.6 | 3.2 | 0.00 | 0.03 | 0.03 | 55 | 1010.5 |
| 20260510002316 | 28 | 284 | 3.2 | 3.2 | 0.00 | 0.03 | 0.03 | 55 | 1010.5 |
| 20260510001813 | 29 | 140 | 1.6 | 4.8 | 0.00 | 0.03 | 0.03 | 55 | 1010.5 |
| 20260510001311 | 29 | 180 | 3.2 | 3.2 | 0.00 | 0.03 | 0.03 | 54 | 1010.5 |
| 20260510000806 | 30 | 161 | 1.6 | 3.2 | 0.00 | 0.03 | 0.03 | 53 | 1010.5 |
| 20260510000305 | 30 | 158 | 1.6 | 4.8 | 0.00 | 0.03 | 0.03 | 52 | 1010.5 |
| 20260509235801 | 31 | 146 | 1.6 | 11.3 | 0.00 | 0.03 | 0.03 | 49 | 1010.8 |
| 20260509235258 | 32 | 255 | 3.2 | 4.8 | 0.00 | 0.03 | 0.03 | 46 | 1010.5 |
| 20260509234753 | 32 | 104 | 1.6 | 1.6 | 0.00 | 0.03 | 0.03 | 42 | 1010.8 |
| 20260509234250 | 33 | 120 | 0.0 | 1.6 | 0.00 | 0.03 | 0.03 | 39 | 1010.5 |
| 20260509233749 | 33 | 216 | 1.6 | 1.6 | 0.00 | 0.03 | 0.03 | 38 | 1010.5 |
| 20260509233246 | 33 | 285 | 1.6 | 1.6 | 0.00 | 0.03 | 0.03 | 38 | 1010.5 |
| 20260509232742 | 34 | 229 | 1.6 | 3.2 | 0.00 | 0.03 | 0.03 | 38 | 1010.5 |
| 20260509232239 | 33 | 229 | 0.0 | 1.6 | 0.00 | 0.03 | 0.03 | 39 | 1010.5 |
| 20260509231735 | 33 | 183 | 0.0 | 1.6 | 0.00 | 0.03 | 0.03 | 40 | 1010.8 |
| 20260509231233 | 33 | 44 | 1.6 | 1.6 | 0.00 | 0.03 | 0.03 | 38 | 1010.5 |
| 20260509230730 | 33 | 74 | 0.0 | 1.6 | 0.00 | 0.03 | 0.03 | 38 | 1010.5 |
| 20260509230227 | 33 | 215 | 1.6 | 1.6 | 0.00 | 0.03 | 0.03 | 40 | 1010.5 |
| 20260509225722 | 33 | 109 | 0.0 | 1.6 | 0.00 | 0.03 | 0.03 | 41 | 1010.5 |
| 20260509225218 | 34 | 326 | 1.6 | 1.6 | 0.00 | 0.03 | 0.03 | 37 | 1010.5 |
| 20260509224714 | 33 | 105 | 0.0 | 1.6 | 0.00 | 0.03 | 0.03 | 41 | 1010.5 |
| 20260509224211 | 34 | 240 | 0.0 | 1.6 | 0.00 | 0.03 | 0.03 | 40 | 1010.5 |
| 20260509223708 | 34 | 103 | 1.6 | 3.2 | 0.00 | 0.03 | 0.03 | 37 | 1010.5 |
| 20260509223205 | 34 | 352 | 1.6 | 1.6 | 0.00 | 0.03 | 0.03 | 38 | 1010.5 |
| 20260509222702 | 34 | 278 | 0.0 | 1.6 | 0.00 | 0.03 | 0.03 | 41 | 1010.5 |
| 20260509222157 | 34 | 199 | 1.6 | 4.8 | 0.00 | 0.03 | 0.03 | 40 | 1010.5 |
| 20260509221648 | 33 | 134 | 0.0 | 1.6 | 0.00 | 0.03 | 0.03 | 39 | 1010.5 |
| 20260509221144 | 33 | 259 | 1.6 | 3.2 | 0.00 | 0.03 | 0.03 | 42 | 1010.5 |
| 20260509220640 | 32 | 200 | 3.2 | 4.8 | 0.00 | 0.03 | 0.03 | 40 | 1010.8 |
| 20260509220136 | 32 | 112 | 1.6 | 1.6 | 0.00 | 0.03 | 0.03 | 44 | 1010.8 |
| 20260509215632 | 32 | 156 | 0.0 | 1.6 | 0.00 | 0.03 | 0.03 | 42 | 1010.8 |
| 20260509215129 | 32 | 216 | 1.6 | 3.2 | 0.00 | 0.03 | 0.03 | 41 | 1010.8 |
| 20260509214626 | 31 | 11 | 1.6 | 3.2 | 0.00 | 0.03 | 0.03 | 45 | 1010.8 |
| 20260509214123 | 31 | 93 | 1.6 | 3.2 | 0.00 | 0.03 | 0.03 | 44 | 1010.5 |
| 20260509213619 | 32 | 46 | 1.6 | 3.2 | 0.00 | 0.03 | 0.03 | 43 | 1010.8 |
| 20260509213116 | 33 | 69 | 1.6 | 3.2 | 0.00 | 0.03 | 0.03 | 42 | 1010.8 |
| 20260509212613 | 33 | 258 | 3.2 | 3.2 | 0.00 | 0.03 | 0.03 | 40 | 1010.8 |
| 20260509212110 | 34 | 326 | 3.2 | 4.8 | 0.00 | 0.03 | 0.03 | 38 | 1011.2 |
| 20260509211606 | 34 | 196 | 0.0 | 4.8 | 0.00 | 0.03 | 0.03 | 39 | 1011.2 |
| 20260509211103 | 34 | 111 | 3.2 | 4.8 | 0.00 | 0.03 | 0.03 | 38 | 1010.8 |
| 20260509210559 | 33 | 247 | 1.6 | 4.8 | 0.00 | 0.03 | 0.03 | 40 | 1011.2 |
| 20260509210056 | 34 | 124 | 1.6 | 3.2 | 0.00 | 0.03 | 0.03 | 39 | 1011.2 |
| 20260509205550 | 33 | 19 | 1.6 | 4.8 | 0.00 | 0.03 | 0.03 | 42 | 1011.2 |
| 20260509205045 | 33 | 24 | 3.2 | 3.2 | 0.00 | 0.03 | 0.03 | 40 | 1011.2 |
| 20260509204542 | 33 | 250 | 4.8 | 4.8 | 0.00 | 0.03 | 0.03 | 39 | 1011.2 |
| 20260509204038 | 32 | 214 | 1.6 | 4.8 | 0.00 | 0.03 | 0.03 | 44 | 1011.6 |
| 20260509203534 | 32 | 225 | 1.6 | 4.8 | 0.00 | 0.03 | 0.03 | 48 | 1011.6 |
| 20260509203033 | 32 | 4 | 3.2 | 3.2 | 0.00 | 0.03 | 0.03 | 43 | 1011.6 |
| 20260509202527 | 32 | 123 | 1.6 | 3.2 | 0.00 | 0.03 | 0.03 | 45 | 1011.6 |
| 20260509202023 | 32 | 224 | 4.8 | 9.7 | 0.00 | 0.03 | 0.03 | 44 | 1011.9 |
| 20260509201518 | 32 | 355 | 1.6 | 3.2 | 0.00 | 0.03 | 0.03 | 45 | 1011.6 |
| 20260509201016 | 32 | 279 | 1.6 | 6.4 | 0.00 | 0.03 | 0.03 | 45 | 1011.9 |
| 20260509200516 | 32 | 314 | 1.6 | 3.2 | 0.00 | 0.03 | 0.03 | 45 | 1011.9 |
| 20260509200013 | 32 | 159 | 0.0 | 3.2 | 0.00 | 0.03 | 0.03 | 47 | 1012.3 |
| 20260509195508 | 31 | 271 | 3.2 | 4.8 | 0.00 | 0.03 | 0.03 | 47 | 1012.3 |
| 20260509195008 | 31 | 225 | 1.6 | 3.2 | 0.00 | 0.03 | 0.03 | 47 | 1011.9 |
| 20260509194504 | 30 | 178 | 0.0 | 1.6 | 0.00 | 0.03 | 0.03 | 50 | 1012.6 |
| 20260509194001 | 31 | 104 | 1.6 | 1.6 | 0.00 | 0.03 | 0.03 | 50 | 1012.6 |
| 20260509193500 | 31 | 286 | 1.6 | 1.6 | 0.00 | 0.03 | 0.03 | 46 | 1012.6 |
| 20260509192957 | 31 | 14 | 1.6 | 3.2 | 0.00 | 0.03 | 0.03 | 46 | 1012.6 |
| 20260509192454 | 32 | 225 | 3.2 | 11.3 | 0.00 | 0.03 | 0.03 | 46 | 1013.0 |
| 20260509191948 | 31 | 2 | 1.6 | 6.4 | 0.00 | 0.03 | 0.03 | 48 | 1012.6 |
| 20260509191444 | 31 | 227 | 0.0 | 4.8 | 0.00 | 0.03 | 0.03 | 52 | 1013.0 |
| 20260509190940 | 31 | 141 | 1.6 | 3.2 | 0.00 | 0.03 | 0.03 | 49 | 1012.6 |
| 20260509190437 | 31 | 293 | 1.6 | 9.7 | 0.00 | 0.03 | 0.03 | 50 | 1013.0 |
| 20260509185935 | 30 | 299 | 6.4 | 11.3 | 0.00 | 0.03 | 0.03 | 51 | 1013.0 |
| 20260509185432 | 30 | 291 | 1.6 | 9.7 | 0.00 | 0.03 | 0.03 | 51 | 1013.0 |
| 20260509184929 | 31 | 249 | 1.6 | 3.2 | 0.00 | 0.03 | 0.03 | 55 | 1013.0 |
| 20260509184427 | 31 | 144 | 1.6 | 3.2 | 0.00 | 0.03 | 0.03 | 51 | 1013.0 |
| 20260509183923 | 31 | 88 | 1.6 | 11.3 | 0.00 | 0.03 | 0.03 | 52 | 1013.0 |
| 20260509183417 | 31 | 173 | 1.6 | 6.4 | 0.00 | 0.03 | 0.03 | 54 | 1013.0 |
| 20260509182914 | 30 | 144 | 1.6 | 3.2 | 0.00 | 0.03 | 0.03 | 57 | 1013.0 |
| 20260509182411 | 30 | 250 | 3.2 | 4.8 | 0.00 | 0.03 | 0.03 | 56 | 1013.3 |
| 20260509181908 | 30 | 305 | 1.6 | 4.8 | 0.00 | 0.03 | 0.03 | 58 | 1013.3 |
| 20260509181406 | 29 | 35 | 1.6 | 1.6 | 0.00 | 0.03 | 0.03 | 60 | 1013.3 |
| 20260509180903 | 28 | 18 | 3.2 | 3.2 | 0.00 | 0.03 | 0.03 | 59 | 1013.3 |
| 20260509180358 | 28 | 314 | 3.2 | 4.8 | 0.00 | 0.03 | 0.03 | 58 | 1013.3 |
| 20260509175855 | 28 | 189 | 1.6 | 9.7 | 0.00 | 0.03 | 0.03 | 60 | 1013.6 |
| 20260509175351 | 29 | 172 | 1.6 | 3.2 | 0.00 | 0.03 | 0.03 | 58 | 1013.3 |
| 20260509174848 | 28 | 88 | 0.0 | 3.2 | 0.00 | 0.03 | 0.03 | 64 | 1013.6 |
| 20260509174344 | 27 | 91 | 1.6 | 3.2 | 0.00 | 0.03 | 0.03 | 66 | 1013.6 |
| 20260509173840 | 28 | 284 | 0.0 | 3.2 | 0.00 | 0.03 | 0.03 | 65 | 1013.6 |
| 20260509173335 | 28 | 40 | 1.6 | 3.2 | 0.00 | 0.03 | 0.03 | 64 | 1013.6 |
| 20260509172831 | 29 | 19 | 1.6 | 3.2 | 0.00 | 0.03 | 0.03 | 62 | 1013.6 |
| 20260509172328 | 29 | 278 | 0.0 | 1.6 | 0.00 | 0.03 | 0.03 | 61 | 1014.1 |
| 20260509171824 | 28 | 187 | 1.6 | 3.2 | 0.00 | 0.03 | 0.03 | 65 | 1014.1 |
| 20260509171320 | 28 | 93 | 0.0 | 1.6 | 0.00 | 0.03 | 0.03 | 68 | 1014.1 |
| 20260509170817 | 28 | 34 | 1.6 | 6.4 | 0.00 | 0.03 | 0.03 | 68 | 1014.1 |
| 20260509170312 | 28 | 293 | 3.2 | 4.8 | 0.00 | 0.03 | 0.03 | 68 | 1014.1 |
| 20260509165812 | 29 | 150 | 1.6 | 4.8 | 0.00 | 0.03 | 0.03 | 65 | 1014.1 |
| 20260509165307 | 28 | 123 | 1.6 | 3.2 | 0.00 | 0.03 | 0.03 | 66 | 1014.1 |
| 20260509164803 | 28 | 229 | 3.2 | 4.8 | 0.00 | 0.03 | 0.03 | 68 | 1014.1 |
| 20260509164300 | 27 | 40 | 0.0 | 3.2 | 0.00 | 0.03 | 0.03 | 72 | 1014.1 |
| 20260509163756 | 28 | 309 | 1.6 | 3.2 | 0.00 | 0.03 | 0.03 | 69 | 1014.1 |
| 20260509163253 | 28 | 196 | 3.2 | 3.2 | 0.00 | 0.03 | 0.03 | 68 | 1014.4 |
| 20260509162752 | 27 | 82 | 0.0 | 1.6 | 0.00 | 0.03 | 0.03 | 72 | 1014.4 |
| 20260509162245 | 27 | 221 | 0.0 | 3.2 | 0.00 | 0.03 | 0.03 | 70 | 1014.8 |
| 20260509161742 | 27 | 226 | 1.6 | 3.2 | 0.00 | 0.03 | 0.03 | 71 | 1014.8 |
| 20260509161238 | 26 | 56 | 0.0 | 1.6 | 0.00 | 0.03 | 0.03 | 77 | 1014.4 |
| 20260509160733 | 25 | 344 | 1.6 | 3.2 | 0.00 | 0.03 | 0.03 | 77 | 1014.4 |
| 20260509160230 | 25 | 98 | 0.0 | 4.8 | 0.00 | 0.03 | 0.03 | 80 | 1014.4 |
| 20260509155724 | 26 | 127 | 0.0 | 1.6 | 0.00 | 0.03 | 0.03 | 78 | 1014.4 |
| 20260509155221 | 26 | 119 | 0.0 | 1.6 | 0.00 | 0.03 | 0.03 | 78 | 1014.4 |
| 20260509154717 | 25 | 359 | 1.6 | 3.2 | 0.00 | 0.03 | 0.03 | 84 | 1014.4 |
| 20260509154215 | 25 | 107 | 3.2 | 4.8 | 0.00 | 0.03 | 0.03 | 83 | 1014.1 |
| 20260509153712 | 24 | 161 | 0.0 | 3.2 | 0.00 | 0.03 | 0.03 | 86 | 1014.4 |
| 20260509153208 | 23 | 135 | 0.0 | 1.6 | 0.00 | 0.03 | 0.03 | 89 | 1014.4 |
| 20260509152704 | 23 | 28 | 0.0 | 1.6 | 0.00 | 0.03 | 0.03 | 91 | 1014.4 |
| 20260509152201 | 23 | 30 | 1.6 | 3.2 | 0.00 | 0.03 | 0.03 | 91 | 1014.1 |
| 20260509151658 | 23 | 141 | 1.6 | 3.2 | 0.00 | 0.03 | 0.03 | 90 | 1014.8 |
| 20260509151155 | 22 | 107 | 1.6 | 4.8 | 0.00 | 0.03 | 0.03 | 92 | 1014.4 |
| 20260509150653 | 22 | 161 | 0.0 | 6.4 | 0.00 | 0.03 | 0.03 | 93 | 1014.1 |
| 20260509150151 | 22 | 124 | 0.0 | 1.6 | 0.00 | 0.03 | 0.03 | 94 | 1014.1 |
| 20260509145647 | 22 | 116 | 0.0 | 3.2 | 0.00 | 0.03 | 0.03 | 95 | 1013.6 |
| 20260509145142 | 22 | 180 | 1.6 | 4.8 | 0.00 | 0.03 | 0.03 | 96 | 1014.1 |
| 20260509144639 | 22 | 204 | 1.6 | 3.2 | 0.00 | 0.03 | 0.03 | 96 | 1014.1 |
| 20260509144136 | 22 | 164 | 0.0 | 1.6 | 0.00 | 0.03 | 0.03 | 97 | 1014.4 |
| 20260509143633 | 22 | 125 | 0.0 | 0.0 | 0.00 | 0.03 | 0.03 | 97 | 1014.4 |
| 20260509143131 | 21 | 112 | 0.0 | 1.6 | 0.00 | 0.03 | 0.03 | 97 | 1014.4 |
| 20260509142626 | 21 | 118 | 0.0 | 0.0 | 0.00 | 0.03 | 0.03 | 97 | 1014.1 |
| 20260509142123 | 21 | 80 | 0.0 | 1.6 | 0.00 | 0.03 | 0.03 | 97 | 1014.4 |
| 20260509141619 | 21 | 99 | 0.0 | 1.6 | 0.00 | 0.03 | 0.03 | 98 | 1014.1 |
| 20260509141115 | 21 | 109 | 0.0 | 0.0 | 0.00 | 0.03 | 0.03 | 98 | 1014.1 |
| 20260509140612 | 21 | 77 | 0.0 | 1.6 | 0.00 | 0.03 | 0.03 | 98 | 1014.1 |
| 20260509140110 | 21 | 111 | 1.6 | 1.6 | 0.00 | 0.03 | 0.03 | 98 | 1013.6 |
| 20260509135607 | 21 | 141 | 1.6 | 3.2 | 0.00 | 0.03 | 0.03 | 98 | 1014.1 |
| 20260509135105 | 21 | 177 | 1.6 | 1.6 | 0.00 | 0.03 | 0.03 | 98 | 1014.1 |
| 20260509134601 | 21 | 106 | 0.0 | 0.0 | 0.00 | 0.03 | 0.03 | 98 | 1013.6 |
| 20260509134059 | 21 | 19 | 0.0 | 1.6 | 0.00 | 0.03 | 0.03 | 98 | 1013.6 |
| 20260509133556 | 21 | 53 | 1.6 | 3.2 | 0.00 | 0.03 | 0.03 | 98 | 1014.1 |
| 20260509133053 | 21 | 64 | 0.0 | 1.6 | 0.00 | 0.03 | 0.03 | 98 | 1013.6 |
| 20260509132551 | 21 | 117 | 0.0 | 0.0 | 0.00 | 0.03 | 0.03 | 98 | 1013.6 |
| 20260509132049 | 21 | 87 | 0.0 | 1.6 | 0.00 | 0.03 | 0.03 | 98 | 1014.1 |
| 20260509131545 | 21 | 164 | 0.0 | 1.6 | 0.00 | 0.03 | 0.03 | 98 | 1014.1 |
| 20260509131042 | 21 | 191 | 1.6 | 1.6 | 0.00 | 0.03 | 0.03 | 98 | 1013.6 |
| 20260509130537 | 21 | 49 | 0.0 | 1.6 | 0.00 | 0.03 | 0.03 | 98 | 1014.1 |
| 20260509130035 | 21 | 100 | 0.0 | 1.6 | 0.00 | 0.03 | 0.03 | 98 | 1013.6 |
| 20260509125531 | 21 | 92 | 0.0 | 1.6 | 0.00 | 0.03 | 0.03 | 98 | 1013.6 |
| 20260509125028 | 21 | 76 | 0.0 | 1.6 | 0.00 | 0.03 | 0.03 | 98 | 1013.6 |
| 20260509124524 | 21 | 84 | 0.0 | 1.6 | 0.00 | 0.03 | 0.03 | 98 | 1014.1 |
| 20260509124022 | 21 | 80 | 0.0 | 3.2 | 0.00 | 0.03 | 0.03 | 98 | 1014.1 |
| 20260509123520 | 21 | 78 | 0.0 | 1.6 | 0.00 | 0.03 | 0.03 | 98 | 1014.4 |
| 20260509123016 | 21 | 80 | 0.0 | 1.6 | 0.00 | 0.03 | 0.03 | 98 | 1014.1 |
| 20260509122512 | 21 | 69 | 1.6 | 1.6 | 0.13 | 0.03 | 0.03 | 98 | 1013.6 |
| 20260509122009 | 21 | 72 | 0.0 | 3.2 | 0.13 | 0.03 | 0.03 | 98 | 1013.6 |
| 20260509121506 | 21 | 68 | 1.6 | 3.2 | 0.00 | 0.00 | 0.00 | 98 | 1013.6 |
| 20260509121004 | 21 | 62 | 1.6 | 1.6 | 0.00 | 0.00 | 0.00 | 98 | 1014.1 |
| 20260509120502 | 21 | 84 | 0.0 | 1.6 | 0.00 | 0.00 | 0.00 | 98 | 1013.6 |
| 20260509115959 | 21 | 47 | 1.6 | 6.4 | 0.00 | 0.00 | 0.00 | 98 | 1013.6 |
| 20260509115456 | 21 | 33 | 1.6 | 3.2 | 0.00 | 0.00 | 0.00 | 98 | 1014.1 |
| 20260509114954 | 21 | 68 | 0.0 | 1.6 | 0.00 | 0.00 | 0.00 | 98 | 1013.6 |
| 20260509114452 | 21 | 109 | 0.0 | 0.0 | 0.00 | 0.00 | 0.00 | 98 | 1013.6 |
| 20260509113951 | 21 | 108 | 0.0 | 0.0 | 0.00 | 0.00 | 0.00 | 98 | 1014.1 |
| 20260509113448 | 21 | 59 | 1.6 | 3.2 | 0.00 | 0.00 | 0.00 | 98 | 1014.4 |
| 20260509112945 | 21 | 65 | 1.6 | 3.2 | 0.00 | 0.00 | 0.00 | 98 | 1014.1 |
| 20260509112442 | 21 | 88 | 1.6 | 3.2 | 0.00 | 0.00 | 0.00 | 98 | 1014.1 |
| 20260509111938 | 21 | 34 | 3.2 | 6.4 | 0.00 | 0.00 | 0.00 | 98 | 1014.1 |
| 20260509111437 | 21 | 39 | 1.6 | 6.4 | 0.00 | 0.00 | 0.00 | 98 | 1013.6 |
| 20260509110934 | 21 | 53 | 3.2 | 3.2 | 0.00 | 0.00 | 0.00 | 98 | 1013.6 |
| 20260509110429 | 21 | 66 | 0.0 | 1.6 | 0.00 | 0.00 | 0.00 | 98 | 1013.3 |
| 20260509105928 | 21 | 42 | 1.6 | 3.2 | 0.00 | 0.00 | 0.00 | 98 | 1013.3 |
| 20260509105426 | 21 | 110 | 0.0 | 0.0 | 0.00 | 0.00 | 0.00 | 98 | 1013.6 |
| 20260509104923 | 21 | 102 | 0.0 | 1.6 | 0.00 | 0.00 | 0.00 | 98 | 1013.3 |
| 20260509104419 | 21 | 96 | 0.0 | 0.0 | 0.00 | 0.00 | 0.00 | 98 | 1013.3 |
| 20260509103917 | 21 | 84 | 0.0 | 1.6 | 0.00 | 0.00 | 0.00 | 98 | 1013.3 |
| 20260509103414 | 21 | 71 | 1.6 | 3.2 | 0.00 | 0.00 | 0.00 | 98 | 1013.3 |
| 20260509102912 | 21 | 135 | 0.0 | 0.0 | 0.00 | 0.00 | 0.00 | 97 | 1013.3 |
| 20260509102409 | 21 | 97 | 0.0 | 1.6 | 0.00 | 0.00 | 0.00 | 97 | 1013.3 |
| 20260509101905 | 21 | 77 | 0.0 | 1.6 | 0.00 | 0.00 | 0.00 | 97 | 1013.0 |
| 20260509101401 | 21 | 57 | 1.6 | 1.6 | 0.00 | 0.00 | 0.00 | 97 | 1013.3 |
| 20260509100859 | 21 | 37 | 1.6 | 1.6 | 0.00 | 0.00 | 0.00 | 97 | 1013.0 |
| 20260509100356 | 21 | 75 | 0.0 | 1.6 | 0.00 | 0.00 | 0.00 | 97 | 1013.0 |
| 20260509095853 | 21 | 96 | 0.0 | 1.6 | 0.00 | 0.00 | 0.00 | 97 | 1013.0 |
| 20260509095350 | 21 | 96 | 0.0 | 1.6 | 0.00 | 0.00 | 0.00 | 97 | 1013.0 |
| 20260509094847 | 21 | 48 | 0.0 | 1.6 | 0.00 | 0.00 | 0.00 | 97 | 1013.0 |
| 20260509094344 | 21 | 76 | 0.0 | 3.2 | 0.00 | 0.00 | 0.00 | 97 | 1012.6 |
| 20260509093842 | 21 | 92 | 0.0 | 1.6 | 0.00 | 0.00 | 0.00 | 97 | 1012.6 |
| 20260509093338 | 21 | 39 | 1.6 | 1.6 | 0.00 | 0.00 | 0.00 | 97 | 1012.6 |
| 20260509092837 | 21 | 58 | 0.0 | 1.6 | 0.00 | 0.00 | 0.00 | 97 | 1012.6 |
| 20260509092334 | 21 | 103 | 0.0 | 0.0 | 0.00 | 0.00 | 0.00 | 97 | 1012.6 |
| 20260509091832 | 21 | 90 | 0.0 | 1.6 | 0.00 | 0.00 | 0.00 | 97 | 1012.3 |
| 20260509091329 | 21 | 82 | 0.0 | 1.6 | 0.00 | 0.00 | 0.00 | 97 | 1012.3 |
| 20260509090826 | 21 | 46 | 1.6 | 1.6 | 0.00 | 0.00 | 0.00 | 97 | 1012.6 |
| 20260509090323 | 21 | 37 | 1.6 | 3.2 | 0.00 | 0.00 | 0.00 | 97 | 1012.6 |
| 20260509085821 | 21 | 103 | 0.0 | 0.0 | 0.00 | 0.00 | 0.00 | 97 | 1012.6 |
| 20260509085318 | 21 | 54 | 1.6 | 1.6 | 0.00 | 0.00 | 0.00 | 97 | 1012.6 |
| 20260509084814 | 21 | 100 | 0.0 | 0.0 | 0.00 | 0.00 | 0.00 | 97 | 1012.3 |
| 20260509084311 | 21 | 58 | 0.0 | 1.6 | 0.00 | 0.00 | 0.00 | 97 | 1012.6 |
| 20260509083809 | 21 | 101 | 0.0 | 0.0 | 0.00 | 0.00 | 0.00 | 97 | 1012.6 |
| 20260509083306 | 21 | 118 | 0.0 | 0.0 | 0.00 | 0.00 | 0.00 | 97 | 1012.6 |
| 20260509082802 | 21 | 108 | 0.0 | 0.0 | 0.00 | 0.00 | 0.00 | 97 | 1013.0 |
| 20260509082259 | 21 | 197 | 0.0 | 0.0 | 0.00 | 0.00 | 0.00 | 97 | 1013.0 |
| 20260509081756 | 21 | 139 | 0.0 | 0.0 | 0.00 | 0.00 | 0.00 | 97 | 1013.0 |
| 20260509081253 | 21 | 132 | 0.0 | 0.0 | 0.00 | 0.00 | 0.00 | 97 | 1013.0 |
| 20260509080751 | 21 | 148 | 0.0 | 0.0 | 0.00 | 0.00 | 0.00 | 97 | 1013.0 |
| 20260509080249 | 21 | 149 | 0.0 | 0.0 | 0.00 | 0.00 | 0.00 | 97 | 1013.0 |
| 20260509075747 | 21 | 128 | 0.0 | 0.0 | 0.00 | 0.00 | 0.00 | 97 | 1013.0 |
| 20260509075244 | 21 | 134 | 0.0 | 0.0 | 0.00 | 0.00 | 0.00 | 97 | 1012.6 |
| 20260509074741 | 21 | 162 | 0.0 | 1.6 | 0.00 | 0.00 | 0.00 | 97 | 1012.6 |
| 20260509074239 | 21 | 111 | 0.0 | 0.0 | 0.00 | 0.00 | 0.00 | 97 | 1012.6 |
| 20260509073734 | 21 | 141 | 0.0 | 1.6 | 0.00 | 0.00 | 0.00 | 97 | 1012.6 |
| 20260509073231 | 21 | 170 | 0.0 | 1.6 | 0.00 | 0.00 | 0.00 | 97 | 1012.3 |